Main page
METAR-TAF:

METAR-TAF

Airports :

Macaé Airport

Macaé, Rio de Janeiro, Brazil

latitude: 22-21S, longitude: 041-46W, elevation: 2 m

Current weather observation

The report was made 1 hour and 7 minutes ago, at 12:00 UTC
Wind 10 kt from the Northeast, varying between North and East
Temperature 32°C
Humidity 43%
Pressure 1012 hPa
Visibility 10 km or more
no clouds below 1500 m and no cumulonimbus

METAR: SBME 181200Z 04010KT 360V080 CAVOK 32/18 Q1012

Time: 10:07 (13:07 UTC)

Forecast

The report was made 4 hours and 12 minutes ago, at 08:55 UTC
Forecast valid from 18 at 12 UTC to 18 at 24 UTC
Wind 7 kt from the Northeast
Visibility 10 km or more
no clouds below 1500 m and no cumulonimbus
Becoming
from 18 at 12 UTC to 18 at 14 UTC
Wind 10 kt from the East/Northeast
Becoming
from 18 at 16 UTC to 18 at 18 UTC
Wind 12 kt from the East

TAF: SBME 180855Z 1812/1824 04007KT CAVOK TX36/1815Z TN26/1824Z BECMG 1812/1814 06010KT BECMG 1816/1818 09012KT RMK PGW

Weather observations and forecasts of more than 4000 airports (METAR and TAF reports).

The available stations are represented by yellow and red dots on the map.

Hover mouse over dot to see the name of the station.

Then click to see weather observations and forecasts.

To change the map : click on the green buttons with a black cross to zoom in, on the green button with a dash to zoom out, or on the green arrows for adjacent maps.


METAR-TAF: